sensor_id;sensor_type;location;lat;lon;timestamp;P1;durP1;ratioP1;P2;durP2;ratioP2
44722;SDS011;30451;48.638;10.624;2023-02-26T00:01:17;130.93;;;101.60;;
44722;SDS011;30451;48.638;10.624;2023-02-26T00:03:48;126.07;;;97.00;;
44722;SDS011;30451;48.638;10.624;2023-02-26T00:06:14;127.38;;;97.53;;
44722;SDS011;30451;48.638;10.624;2023-02-26T00:08:40;129.50;;;99.90;;
44722;SDS011;30451;48.638;10.624;2023-02-26T00:11:06;123.90;;;97.18;;
44722;SDS011;30451;48.638;10.624;2023-02-26T00:13:32;119.00;;;94.35;;
44722;SDS011;30451;48.638;10.624;2023-02-26T00:16:00;114.85;;;90.07;;
44722;SDS011;30451;48.638;10.624;2023-02-26T00:18:26;114.20;;;88.50;;
44722;SDS011;30451;48.638;10.624;2023-02-26T00:20:52;100.40;;;78.60;;
44722;SDS011;30451;48.638;10.624;2023-02-26T00:23:19;109.43;;;85.40;;
44722;SDS011;30451;48.638;10.624;2023-02-26T00:25:45;105.13;;;81.15;;
44722;SDS011;30451;48.638;10.624;2023-02-26T00:28:11;95.28;;;75.28;;
44722;SDS011;30451;48.638;10.624;2023-02-26T00:30:37;97.75;;;74.80;;
44722;SDS011;30451;48.638;10.624;2023-02-26T00:33:03;98.20;;;76.05;;
44722;SDS011;30451;48.638;10.624;2023-02-26T00:35:29;98.18;;;75.70;;
44722;SDS011;30451;48.638;10.624;2023-02-26T00:38:00;96.22;;;74.78;;
44722;SDS011;30451;48.638;10.624;2023-02-26T00:40:43;93.95;;;72.57;;
44722;SDS011;30451;48.638;10.624;2023-02-26T00:43:17;89.60;;;68.13;;
44722;SDS011;30451;48.638;10.624;2023-02-26T00:51:30;82.15;;;63.00;;
44722;SDS011;30451;48.638;10.624;2023-02-26T00:56:40;78.43;;;60.40;;
44722;SDS011;30451;48.638;10.624;2023-02-26T00:59:05;72.95;;;55.33;;
44722;SDS011;30451;48.638;10.624;2023-02-26T01:01:31;75.45;;;57.60;;
44722;SDS011;30451;48.638;10.624;2023-02-26T01:03:57;70.63;;;55.38;;
44722;SDS011;30451;48.638;10.624;2023-02-26T01:06:23;71.18;;;53.38;;
44722;SDS011;30451;48.638;10.624;2023-02-26T01:11:28;71.20;;;55.05;;
44722;SDS011;30451;48.638;10.624;2023-02-26T01:13:54;63.72;;;50.47;;
44722;SDS011;30451;48.638;10.624;2023-02-26T01:16:20;65.60;;;48.92;;
44722;SDS011;30451;48.638;10.624;2023-02-26T01:19:08;66.00;;;49.92;;
44722;SDS011;30451;48.638;10.624;2023-02-26T01:21:46;63.78;;;49.47;;
44722;SDS011;30451;48.638;10.624;2023-02-26T01:24:16;63.30;;;47.83;;
44722;SDS011;30451;48.638;10.624;2023-02-26T01:26:46;60.83;;;47.33;;
44722;SDS011;30451;48.638;10.624;2023-02-26T01:29:13;59.20;;;46.25;;
44722;SDS011;30451;48.638;10.624;2023-02-26T01:31:49;57.88;;;44.22;;
44722;SDS011;30451;48.638;10.624;2023-02-26T01:36:57;54.75;;;42.67;;
44722;SDS011;30451;48.638;10.624;2023-02-26T01:39:35;53.03;;;41.88;;
44722;SDS011;30451;48.638;10.624;2023-02-26T01:44:54;51.05;;;39.08;;
44722;SDS011;30451;48.638;10.624;2023-02-26T01:47:36;49.00;;;38.58;;
44722;SDS011;30451;48.638;10.624;2023-02-26T01:50:19;48.00;;;36.88;;
44722;SDS011;30451;48.638;10.624;2023-02-26T01:55:16;48.72;;;36.63;;
44722;SDS011;30451;48.638;10.624;2023-02-26T01:57:48;45.25;;;36.20;;
44722;SDS011;30451;48.638;10.624;2023-02-26T02:00:17;45.20;;;35.28;;
44722;SDS011;30451;48.638;10.624;2023-02-26T02:02:43;44.83;;;34.53;;
44722;SDS011;30451;48.638;10.624;2023-02-26T02:05:23;43.63;;;33.95;;
44722;SDS011;30451;48.638;10.624;2023-02-26T02:07:51;41.80;;;33.42;;
44722;SDS011;30451;48.638;10.624;2023-02-26T02:10:17;44.15;;;33.55;;
44722;SDS011;30451;48.638;10.624;2023-02-26T02:15:18;41.50;;;32.10;;
44722;SDS011;30451;48.638;10.624;2023-02-26T02:23:21;36.53;;;29.48;;
44722;SDS011;30451;48.638;10.624;2023-02-26T02:28:42;39.40;;;29.27;;
44722;SDS011;30451;48.638;10.624;2023-02-26T02:31:30;35.10;;;27.52;;
44722;SDS011;30451;48.638;10.624;2023-02-26T02:34:21;31.85;;;25.95;;
44722;SDS011;30451;48.638;10.624;2023-02-26T02:39:29;35.15;;;26.92;;
44722;SDS011;30451;48.638;10.624;2023-02-26T02:42:03;33.20;;;25.38;;
44722;SDS011;30451;48.638;10.624;2023-02-26T02:44:35;32.20;;;24.95;;
44722;SDS011;30451;48.638;10.624;2023-02-26T02:47:04;30.42;;;24.48;;
44722;SDS011;30451;48.638;10.624;2023-02-26T02:49:40;31.42;;;24.48;;
44722;SDS011;30451;48.638;10.624;2023-02-26T02:55:03;30.80;;;23.15;;
44722;SDS011;30451;48.638;10.624;2023-02-26T02:57:33;32.28;;;23.20;;
44722;SDS011;30451;48.638;10.624;2023-02-26T03:00:12;29.35;;;23.27;;
44722;SDS011;30451;48.638;10.624;2023-02-26T03:05:20;27.88;;;21.73;;
44722;SDS011;30451;48.638;10.624;2023-02-26T03:07:52;27.08;;;20.77;;
44722;SDS011;30451;48.638;10.624;2023-02-26T03:10:24;25.80;;;19.77;;
44722;SDS011;30451;48.638;10.624;2023-02-26T03:12:50;24.45;;;19.90;;
44722;SDS011;30451;48.638;10.624;2023-02-26T03:15:15;25.90;;;19.52;;
44722;SDS011;30451;48.638;10.624;2023-02-26T03:17:58;25.10;;;18.80;;
44722;SDS011;30451;48.638;10.624;2023-02-26T03:20:33;24.70;;;18.77;;
44722;SDS011;30451;48.638;10.624;2023-02-26T03:25:53;22.73;;;17.60;;
44722;SDS011;30451;48.638;10.624;2023-02-26T03:28:35;22.65;;;17.40;;
44722;SDS011;30451;48.638;10.624;2023-02-26T03:31:15;22.75;;;17.15;;
44722;SDS011;30451;48.638;10.624;2023-02-26T03:36:24;24.92;;;18.35;;
44722;SDS011;30451;48.638;10.624;2023-02-26T03:39:17;21.55;;;16.40;;
44722;SDS011;30451;48.638;10.624;2023-02-26T03:41:50;22.35;;;16.45;;
44722;SDS011;30451;48.638;10.624;2023-02-26T03:44:28;21.35;;;15.77;;
44722;SDS011;30451;48.638;10.624;2023-02-26T03:46:58;19.05;;;14.80;;
44722;SDS011;30451;48.638;10.624;2023-02-26T03:49:32;22.05;;;16.00;;
44722;SDS011;30451;48.638;10.624;2023-02-26T03:52:02;20.23;;;15.52;;
44722;SDS011;30451;48.638;10.624;2023-02-26T03:54:33;19.73;;;15.35;;
44722;SDS011;30451;48.638;10.624;2023-02-26T03:57:03;19.40;;;14.93;;
44722;SDS011;30451;48.638;10.624;2023-02-26T03:59:28;19.48;;;14.65;;
44722;SDS011;30451;48.638;10.624;2023-02-26T04:07:11;18.98;;;14.25;;
44722;SDS011;30451;48.638;10.624;2023-02-26T04:09:42;19.00;;;14.27;;
44722;SDS011;30451;48.638;10.624;2023-02-26T04:12:09;19.25;;;14.35;;
44722;SDS011;30451;48.638;10.624;2023-02-26T04:14:35;17.73;;;13.60;;
44722;SDS011;30451;48.638;10.624;2023-02-26T04:17:01;17.23;;;13.65;;
44722;SDS011;30451;48.638;10.624;2023-02-26T04:19:27;17.33;;;13.10;;
44722;SDS011;30451;48.638;10.624;2023-02-26T04:21:52;15.90;;;12.38;;
44722;SDS011;30451;48.638;10.624;2023-02-26T04:24:18;15.65;;;11.75;;
44722;SDS011;30451;48.638;10.624;2023-02-26T04:26:51;16.77;;;12.88;;
44722;SDS011;30451;48.638;10.624;2023-02-26T04:29:16;16.67;;;12.18;;
44722;SDS011;30451;48.638;10.624;2023-02-26T04:31:42;16.35;;;12.20;;
44722;SDS011;30451;48.638;10.624;2023-02-26T04:34:08;14.43;;;11.23;;
44722;SDS011;30451;48.638;10.624;2023-02-26T04:36:33;15.45;;;11.68;;
44722;SDS011;30451;48.638;10.624;2023-02-26T04:38:59;15.57;;;11.65;;
44722;SDS011;30451;48.638;10.624;2023-02-26T04:41:25;16.30;;;12.05;;
44722;SDS011;30451;48.638;10.624;2023-02-26T04:43:50;14.57;;;11.07;;
44722;SDS011;30451;48.638;10.624;2023-02-26T04:46:16;15.98;;;11.48;;
44722;SDS011;30451;48.638;10.624;2023-02-26T04:48:42;15.20;;;10.98;;
44722;SDS011;30451;48.638;10.624;2023-02-26T04:51:07;15.75;;;11.38;;
44722;SDS011;30451;48.638;10.624;2023-02-26T04:53:33;14.80;;;10.75;;
44722;SDS011;30451;48.638;10.624;2023-02-26T04:55:58;14.35;;;10.77;;
44722;SDS011;30451;48.638;10.624;2023-02-26T04:58:24;13.63;;;10.35;;
44722;SDS011;30451;48.638;10.624;2023-02-26T05:00:51;12.75;;;9.73;;
44722;SDS011;30451;48.638;10.624;2023-02-26T05:03:18;12.98;;;10.05;;
44722;SDS011;30451;48.638;10.624;2023-02-26T05:05:44;12.43;;;9.20;;
44722;SDS011;30451;48.638;10.624;2023-02-26T05:08:10;14.50;;;10.05;;
44722;SDS011;30451;48.638;10.624;2023-02-26T05:10:35;12.88;;;9.30;;
44722;SDS011;30451;48.638;10.624;2023-02-26T05:13:01;10.88;;;8.45;;
44722;SDS011;30451;48.638;10.624;2023-02-26T05:15:27;11.88;;;8.60;;
44722;SDS011;30451;48.638;10.624;2023-02-26T05:17:53;11.95;;;8.07;;
44722;SDS011;30451;48.638;10.624;2023-02-26T05:20:18;10.60;;;7.53;;
44722;SDS011;30451;48.638;10.624;2023-02-26T05:22:44;10.63;;;8.25;;
44722;SDS011;30451;48.638;10.624;2023-02-26T05:25:10;10.48;;;7.95;;
44722;SDS011;30451;48.638;10.624;2023-02-26T05:27:39;10.57;;;7.88;;
44722;SDS011;30451;48.638;10.624;2023-02-26T05:30:06;10.60;;;8.55;;
44722;SDS011;30451;48.638;10.624;2023-02-26T05:32:33;11.23;;;7.65;;
44722;SDS011;30451;48.638;10.624;2023-02-26T05:34:58;9.90;;;7.22;;
44722;SDS011;30451;48.638;10.624;2023-02-26T05:37:24;9.82;;;7.20;;
44722;SDS011;30451;48.638;10.624;2023-02-26T05:39:49;10.23;;;7.35;;
44722;SDS011;30451;48.638;10.624;2023-02-26T05:42:15;9.95;;;7.28;;
44722;SDS011;30451;48.638;10.624;2023-02-26T05:44:41;9.02;;;6.72;;
44722;SDS011;30451;48.638;10.624;2023-02-26T05:47:06;9.48;;;7.03;;
44722;SDS011;30451;48.638;10.624;2023-02-26T05:49:32;9.23;;;6.72;;
44722;SDS011;30451;48.638;10.624;2023-02-26T05:51:57;9.70;;;6.50;;
44722;SDS011;30451;48.638;10.624;2023-02-26T05:54:23;8.80;;;6.68;;
44722;SDS011;30451;48.638;10.624;2023-02-26T05:56:49;8.30;;;6.55;;
44722;SDS011;30451;48.638;10.624;2023-02-26T05:59:15;9.60;;;6.35;;
44722;SDS011;30451;48.638;10.624;2023-02-26T06:01:41;7.93;;;6.22;;
44722;SDS011;30451;48.638;10.624;2023-02-26T06:04:07;9.32;;;6.13;;
44722;SDS011;30451;48.638;10.624;2023-02-26T06:06:33;8.23;;;6.00;;
44722;SDS011;30451;48.638;10.624;2023-02-26T06:08:59;7.95;;;5.90;;
44722;SDS011;30451;48.638;10.624;2023-02-26T06:11:26;8.93;;;6.13;;
44722;SDS011;30451;48.638;10.624;2023-02-26T06:13:55;7.97;;;5.72;;
44722;SDS011;30451;48.638;10.624;2023-02-26T06:16:21;8.45;;;5.88;;
44722;SDS011;30451;48.638;10.624;2023-02-26T06:18:47;8.93;;;6.28;;
44722;SDS011;30451;48.638;10.624;2023-02-26T06:21:13;7.13;;;5.22;;
44722;SDS011;30451;48.638;10.624;2023-02-26T06:23:39;7.95;;;5.80;;
44722;SDS011;30451;48.638;10.624;2023-02-26T06:26:05;6.78;;;5.63;;
44722;SDS011;30451;48.638;10.624;2023-02-26T06:28:31;7.90;;;5.95;;
44722;SDS011;30451;48.638;10.624;2023-02-26T06:30:57;8.10;;;5.30;;
44722;SDS011;30451;48.638;10.624;2023-02-26T06:33:23;7.25;;;5.45;;
44722;SDS011;30451;48.638;10.624;2023-02-26T06:35:49;6.90;;;5.30;;
44722;SDS011;30451;48.638;10.624;2023-02-26T06:38:15;7.47;;;5.10;;
44722;SDS011;30451;48.638;10.624;2023-02-26T06:40:41;7.35;;;4.97;;
44722;SDS011;30451;48.638;10.624;2023-02-26T06:43:07;6.15;;;4.68;;
44722;SDS011;30451;48.638;10.624;2023-02-26T06:45:32;6.88;;;4.68;;
44722;SDS011;30451;48.638;10.624;2023-02-26T06:47:58;6.38;;;4.90;;
44722;SDS011;30451;48.638;10.624;2023-02-26T06:50:23;6.70;;;4.82;;
44722;SDS011;30451;48.638;10.624;2023-02-26T06:52:49;6.72;;;4.65;;
44722;SDS011;30451;48.638;10.624;2023-02-26T06:55:15;6.38;;;5.05;;
44722;SDS011;30451;48.638;10.624;2023-02-26T06:57:40;6.00;;;4.53;;
44722;SDS011;30451;48.638;10.624;2023-02-26T07:00:06;6.47;;;4.35;;
44722;SDS011;30451;48.638;10.624;2023-02-26T07:02:32;5.88;;;4.28;;
44722;SDS011;30451;48.638;10.624;2023-02-26T07:04:58;6.30;;;4.40;;
44722;SDS011;30451;48.638;10.624;2023-02-26T07:07:24;5.93;;;4.50;;
44722;SDS011;30451;48.638;10.624;2023-02-26T07:09:49;6.25;;;4.20;;
44722;SDS011;30451;48.638;10.624;2023-02-26T07:12:15;5.75;;;4.03;;
44722;SDS011;30451;48.638;10.624;2023-02-26T07:14:41;6.68;;;4.65;;
44722;SDS011;30451;48.638;10.624;2023-02-26T07:17:10;5.43;;;4.00;;
44722;SDS011;30451;48.638;10.624;2023-02-26T07:19:44;5.85;;;4.20;;
44722;SDS011;30451;48.638;10.624;2023-02-26T07:22:10;5.47;;;4.10;;
44722;SDS011;30451;48.638;10.624;2023-02-26T07:24:36;5.53;;;3.88;;
44722;SDS011;30451;48.638;10.624;2023-02-26T07:27:02;5.22;;;3.75;;
44722;SDS011;30451;48.638;10.624;2023-02-26T07:29:27;5.10;;;3.50;;
44722;SDS011;30451;48.638;10.624;2023-02-26T07:31:53;5.53;;;3.85;;
44722;SDS011;30451;48.638;10.624;2023-02-26T07:34:19;5.15;;;3.60;;
44722;SDS011;30451;48.638;10.624;2023-02-26T07:36:44;5.20;;;3.80;;
44722;SDS011;30451;48.638;10.624;2023-02-26T07:39:10;4.47;;;3.35;;
44722;SDS011;30451;48.638;10.624;2023-02-26T07:41:36;5.07;;;3.53;;
44722;SDS011;30451;48.638;10.624;2023-02-26T07:44:01;4.88;;;3.20;;
44722;SDS011;30451;48.638;10.624;2023-02-26T07:46:27;5.00;;;3.42;;
44722;SDS011;30451;48.638;10.624;2023-02-26T07:48:53;4.85;;;3.30;;
44722;SDS011;30451;48.638;10.624;2023-02-26T07:51:18;4.68;;;3.40;;
44722;SDS011;30451;48.638;10.624;2023-02-26T07:53:44;4.78;;;3.20;;
44722;SDS011;30451;48.638;10.624;2023-02-26T07:56:09;4.65;;;3.13;;
44722;SDS011;30451;48.638;10.624;2023-02-26T07:58:35;4.50;;;2.85;;
44722;SDS011;30451;48.638;10.624;2023-02-26T08:01:01;3.88;;;2.72;;
44722;SDS011;30451;48.638;10.624;2023-02-26T08:03:26;4.60;;;2.80;;
44722;SDS011;30451;48.638;10.624;2023-02-26T08:05:52;4.07;;;2.80;;
44722;SDS011;30451;48.638;10.624;2023-02-26T08:08:17;4.75;;;2.90;;
44722;SDS011;30451;48.638;10.624;2023-02-26T08:10:43;4.05;;;2.97;;
44722;SDS011;30451;48.638;10.624;2023-02-26T08:13:08;4.10;;;2.75;;
44722;SDS011;30451;48.638;10.624;2023-02-26T08:15:34;4.80;;;2.85;;
44722;SDS011;30451;48.638;10.624;2023-02-26T08:18:00;4.25;;;2.67;;
44722;SDS011;30451;48.638;10.624;2023-02-26T08:20:26;3.60;;;2.70;;
44722;SDS011;30451;48.638;10.624;2023-02-26T08:22:51;4.22;;;2.83;;
44722;SDS011;30451;48.638;10.624;2023-02-26T08:25:17;4.95;;;2.92;;
44722;SDS011;30451;48.638;10.624;2023-02-26T08:27:43;3.47;;;2.45;;
44722;SDS011;30451;48.638;10.624;2023-02-26T08:30:09;4.65;;;2.42;;
44722;SDS011;30451;48.638;10.624;2023-02-26T08:32:35;5.20;;;3.05;;
44722;SDS011;30451;48.638;10.624;2023-02-26T08:35:03;3.58;;;2.20;;
44722;SDS011;30451;48.638;10.624;2023-02-26T08:37:29;3.67;;;2.25;;
44722;SDS011;30451;48.638;10.624;2023-02-26T08:39:55;4.03;;;2.60;;
44722;SDS011;30451;48.638;10.624;2023-02-26T08:42:21;3.65;;;2.40;;
44722;SDS011;30451;48.638;10.624;2023-02-26T08:44:46;3.90;;;2.45;;
44722;SDS011;30451;48.638;10.624;2023-02-26T08:47:12;3.70;;;2.40;;
44722;SDS011;30451;48.638;10.624;2023-02-26T08:49:38;4.18;;;2.45;;
44722;SDS011;30451;48.638;10.624;2023-02-26T08:52:03;3.50;;;2.50;;
44722;SDS011;30451;48.638;10.624;2023-02-26T08:54:29;3.40;;;2.13;;
44722;SDS011;30451;48.638;10.624;2023-02-26T08:56:56;3.22;;;2.10;;
44722;SDS011;30451;48.638;10.624;2023-02-26T08:59:22;3.42;;;2.10;;
44722;SDS011;30451;48.638;10.624;2023-02-26T09:01:49;3.00;;;2.00;;
44722;SDS011;30451;48.638;10.624;2023-02-26T09:04:15;3.15;;;2.10;;
44722;SDS011;30451;48.638;10.624;2023-02-26T09:06:41;3.20;;;2.10;;
44722;SDS011;30451;48.638;10.624;2023-02-26T09:09:07;3.53;;;2.20;;
44722;SDS011;30451;48.638;10.624;2023-02-26T09:11:32;3.55;;;2.05;;
44722;SDS011;30451;48.638;10.624;2023-02-26T09:13:58;3.20;;;2.00;;
44722;SDS011;30451;48.638;10.624;2023-02-26T09:16:26;3.53;;;2.10;;
44722;SDS011;30451;48.638;10.624;2023-02-26T09:18:51;3.35;;;1.90;;
44722;SDS011;30451;48.638;10.624;2023-02-26T09:21:17;3.30;;;2.13;;
44722;SDS011;30451;48.638;10.624;2023-02-26T09:23:43;3.53;;;1.92;;
44722;SDS011;30451;48.638;10.624;2023-02-26T09:26:08;3.38;;;2.00;;
44722;SDS011;30451;48.638;10.624;2023-02-26T09:28:34;3.08;;;2.00;;
44722;SDS011;30451;48.638;10.624;2023-02-26T09:30:59;2.78;;;1.60;;
44722;SDS011;30451;48.638;10.624;2023-02-26T09:33:25;3.03;;;1.77;;
44722;SDS011;30451;48.638;10.624;2023-02-26T09:35:51;2.80;;;1.90;;
44722;SDS011;30451;48.638;10.624;2023-02-26T09:38:17;3.45;;;2.10;;
44722;SDS011;30451;48.638;10.624;2023-02-26T09:40:45;3.00;;;2.17;;
44722;SDS011;30451;48.638;10.624;2023-02-26T09:51:59;2.60;;;1.67;;
44722;SDS011;30451;48.638;10.624;2023-02-26T09:54:55;2.65;;;1.75;;
44722;SDS011;30451;48.638;10.624;2023-02-26T09:57:28;2.90;;;1.80;;
44722;SDS011;30451;48.638;10.624;2023-02-26T09:59:56;2.92;;;1.90;;
44722;SDS011;30451;48.638;10.624;2023-02-26T10:02:44;2.70;;;1.60;;
44722;SDS011;30451;48.638;10.624;2023-02-26T10:05:35;3.55;;;2.03;;
44722;SDS011;30451;48.638;10.624;2023-02-26T10:08:15;2.95;;;1.65;;
44722;SDS011;30451;48.638;10.624;2023-02-26T10:11:19;3.33;;;1.55;;
44722;SDS011;30451;48.638;10.624;2023-02-26T10:14:00;2.40;;;1.60;;
44722;SDS011;30451;48.638;10.624;2023-02-26T10:16:29;2.88;;;1.77;;
44722;SDS011;30451;48.638;10.624;2023-02-26T10:19:02;2.80;;;1.80;;
44722;SDS011;30451;48.638;10.624;2023-02-26T10:21:34;2.85;;;1.70;;
44722;SDS011;30451;48.638;10.624;2023-02-26T10:24:04;2.90;;;1.85;;
44722;SDS011;30451;48.638;10.624;2023-02-26T10:26:39;2.75;;;1.75;;
44722;SDS011;30451;48.638;10.624;2023-02-26T10:32:21;2.60;;;1.70;;
44722;SDS011;30451;48.638;10.624;2023-02-26T10:37:23;2.75;;;1.85;;
44722;SDS011;30451;48.638;10.624;2023-02-26T10:45:53;3.33;;;1.70;;
44722;SDS011;30451;48.638;10.624;2023-02-26T10:51:36;2.97;;;2.00;;
44722;SDS011;30451;48.638;10.624;2023-02-26T10:54:05;3.75;;;2.00;;
44722;SDS011;30451;48.638;10.624;2023-02-26T10:56:50;2.70;;;1.80;;
44722;SDS011;30451;48.638;10.624;2023-02-26T10:59:16;3.10;;;2.03;;
44722;SDS011;30451;48.638;10.624;2023-02-26T11:01:41;3.25;;;1.83;;
44722;SDS011;30451;48.638;10.624;2023-02-26T11:04:10;3.33;;;2.15;;
44722;SDS011;30451;48.638;10.624;2023-02-26T11:06:39;3.25;;;2.08;;
44722;SDS011;30451;48.638;10.624;2023-02-26T11:09:30;2.97;;;2.05;;
44722;SDS011;30451;48.638;10.624;2023-02-26T11:12:06;3.03;;;1.88;;
44722;SDS011;30451;48.638;10.624;2023-02-26T11:14:37;2.97;;;1.88;;
44722;SDS011;30451;48.638;10.624;2023-02-26T11:17:05;3.10;;;2.05;;
44722;SDS011;30451;48.638;10.624;2023-02-26T11:19:37;3.20;;;2.03;;
44722;SDS011;30451;48.638;10.624;2023-02-26T11:22:04;3.40;;;2.10;;
44722;SDS011;30451;48.638;10.624;2023-02-26T11:24:40;3.75;;;2.15;;
44722;SDS011;30451;48.638;10.624;2023-02-26T11:27:12;3.25;;;2.25;;
44722;SDS011;30451;48.638;10.624;2023-02-26T11:29:40;3.15;;;1.98;;
44722;SDS011;30451;48.638;10.624;2023-02-26T11:32:17;3.30;;;2.08;;
44722;SDS011;30451;48.638;10.624;2023-02-26T11:34:46;3.30;;;2.10;;
44722;SDS011;30451;48.638;10.624;2023-02-26T11:37:13;3.47;;;1.80;;
44722;SDS011;30451;48.638;10.624;2023-02-26T11:39:44;4.50;;;2.47;;
44722;SDS011;30451;48.638;10.624;2023-02-26T11:42:11;3.45;;;1.98;;
44722;SDS011;30451;48.638;10.624;2023-02-26T11:44:39;3.65;;;2.03;;
44722;SDS011;30451;48.638;10.624;2023-02-26T11:47:13;3.88;;;2.03;;
44722;SDS011;30451;48.638;10.624;2023-02-26T11:49:43;3.70;;;2.10;;
44722;SDS011;30451;48.638;10.624;2023-02-26T11:54:43;2.97;;;1.77;;
44722;SDS011;30451;48.638;10.624;2023-02-26T11:57:22;3.10;;;1.85;;
44722;SDS011;30451;48.638;10.624;2023-02-26T11:59:50;3.08;;;1.85;;
44722;SDS011;30451;48.638;10.624;2023-02-26T12:02:20;2.13;;;1.50;;
44722;SDS011;30451;48.638;10.624;2023-02-26T12:04:49;2.83;;;1.63;;
44722;SDS011;30451;48.638;10.624;2023-02-26T12:07:17;3.17;;;1.45;;
44722;SDS011;30451;48.638;10.624;2023-02-26T12:09:45;3.55;;;1.75;;
44722;SDS011;30451;48.638;10.624;2023-02-26T12:20:31;2.78;;;1.50;;
44722;SDS011;30451;48.638;10.624;2023-02-26T12:31:48;1.50;;;1.00;;
44722;SDS011;30451;48.638;10.624;2023-02-26T12:39:44;1.65;;;1.17;;
44722;SDS011;30451;48.638;10.624;2023-02-26T12:50:39;1.92;;;1.20;;
44722;SDS011;30451;48.638;10.624;2023-02-26T12:53:18;2.20;;;1.17;;
44722;SDS011;30451;48.638;10.624;2023-02-26T13:09:44;3.45;;;1.30;;
44722;SDS011;30451;48.638;10.624;2023-02-26T13:17:59;2.00;;;1.20;;
44722;SDS011;30451;48.638;10.624;2023-02-26T13:20:33;2.42;;;1.00;;
44722;SDS011;30451;48.638;10.624;2023-02-26T13:23:04;2.28;;;1.10;;
44722;SDS011;30451;48.638;10.624;2023-02-26T13:25:49;2.00;;;1.05;;
44722;SDS011;30451;48.638;10.624;2023-02-26T13:28:34;1.65;;;0.98;;
44722;SDS011;30451;48.638;10.624;2023-02-26T13:31:03;2.28;;;1.30;;
44722;SDS011;30451;48.638;10.624;2023-02-26T13:33:37;2.13;;;1.30;;
44722;SDS011;30451;48.638;10.624;2023-02-26T13:36:04;2.13;;;1.10;;
44722;SDS011;30451;48.638;10.624;2023-02-26T13:42:17;1.60;;;0.95;;
44722;SDS011;30451;48.638;10.624;2023-02-26T13:47:30;1.50;;;0.90;;
44722;SDS011;30451;48.638;10.624;2023-02-26T13:53:32;1.80;;;1.00;;
44722;SDS011;30451;48.638;10.624;2023-02-26T13:56:11;1.85;;;1.10;;
44722;SDS011;30451;48.638;10.624;2023-02-26T13:58:39;1.85;;;1.00;;
44722;SDS011;30451;48.638;10.624;2023-02-26T14:01:13;1.83;;;0.90;;
44722;SDS011;30451;48.638;10.624;2023-02-26T14:03:45;2.10;;;1.23;;
44722;SDS011;30451;48.638;10.624;2023-02-26T14:14:33;2.03;;;1.00;;
44722;SDS011;30451;48.638;10.624;2023-02-26T14:19:42;3.00;;;1.20;;
44722;SDS011;30451;48.638;10.624;2023-02-26T14:22:17;1.75;;;1.10;;
44722;SDS011;30451;48.638;10.624;2023-02-26T14:35:31;1.65;;;1.00;;
44722;SDS011;30451;48.638;10.624;2023-02-26T14:40:43;1.52;;;0.85;;
44722;SDS011;30451;48.638;10.624;2023-02-26T14:43:20;1.20;;;0.75;;
44722;SDS011;30451;48.638;10.624;2023-02-26T14:45:52;1.70;;;0.90;;
44722;SDS011;30451;48.638;10.624;2023-02-26T14:48:20;1.70;;;0.90;;
44722;SDS011;30451;48.638;10.624;2023-02-26T14:53:58;1.35;;;0.80;;
44722;SDS011;30451;48.638;10.624;2023-02-26T15:02:25;1.48;;;0.80;;
44722;SDS011;30451;48.638;10.624;2023-02-26T15:05:16;2.38;;;0.90;;
44722;SDS011;30451;48.638;10.624;2023-02-26T15:16:10;1.42;;;0.80;;
44722;SDS011;30451;48.638;10.624;2023-02-26T15:23:57;1.05;;;0.68;;
44722;SDS011;30451;48.638;10.624;2023-02-26T15:26:27;1.67;;;0.80;;
44722;SDS011;30451;48.638;10.624;2023-02-26T15:28:55;1.38;;;0.80;;
44722;SDS011;30451;48.638;10.624;2023-02-26T15:31:46;1.50;;;0.88;;
44722;SDS011;30451;48.638;10.624;2023-02-26T15:34:12;1.30;;;0.70;;
44722;SDS011;30451;48.638;10.624;2023-02-26T15:36:48;0.77;;;0.70;;
44722;SDS011;30451;48.638;10.624;2023-02-26T15:39:16;3.63;;;1.10;;
44722;SDS011;30451;48.638;10.624;2023-02-26T15:41:42;1.45;;;0.70;;
44722;SDS011;30451;48.638;10.624;2023-02-26T15:46:40;1.55;;;0.90;;
44722;SDS011;30451;48.638;10.624;2023-02-26T15:49:23;0.98;;;0.70;;
44722;SDS011;30451;48.638;10.624;2023-02-26T15:51:54;1.10;;;0.70;;
44722;SDS011;30451;48.638;10.624;2023-02-26T15:54:22;1.50;;;0.65;;
44722;SDS011;30451;48.638;10.624;2023-02-26T15:56:51;1.42;;;0.65;;
44722;SDS011;30451;48.638;10.624;2023-02-26T15:59:18;1.00;;;0.60;;
44722;SDS011;30451;48.638;10.624;2023-02-26T16:01:47;1.40;;;0.57;;
44722;SDS011;30451;48.638;10.624;2023-02-26T16:04:15;1.45;;;0.60;;
44722;SDS011;30451;48.638;10.624;2023-02-26T16:06:43;0.93;;;0.63;;
44722;SDS011;30451;48.638;10.624;2023-02-26T16:09:35;1.30;;;0.70;;
44722;SDS011;30451;48.638;10.624;2023-02-26T16:12:02;1.13;;;0.70;;
44722;SDS011;30451;48.638;10.624;2023-02-26T16:14:33;1.23;;;0.70;;
44722;SDS011;30451;48.638;10.624;2023-02-26T16:17:03;0.80;;;0.60;;
44722;SDS011;30451;48.638;10.624;2023-02-26T16:19:34;0.93;;;0.50;;
44722;SDS011;30451;48.638;10.624;2023-02-26T16:22:06;0.80;;;0.68;;
44722;SDS011;30451;48.638;10.624;2023-02-26T16:24:59;1.40;;;0.60;;
44722;SDS011;30451;48.638;10.624;2023-02-26T16:27:29;1.02;;;0.60;;
44722;SDS011;30451;48.638;10.624;2023-02-26T16:29:56;1.48;;;0.50;;
44722;SDS011;30451;48.638;10.624;2023-02-26T16:32:24;1.08;;;0.75;;
44722;SDS011;30451;48.638;10.624;2023-02-26T16:34:53;0.93;;;0.60;;
44722;SDS011;30451;48.638;10.624;2023-02-26T16:39:46;1.17;;;0.60;;
44722;SDS011;30451;48.638;10.624;2023-02-26T16:42:19;1.20;;;0.60;;
44722;SDS011;30451;48.638;10.624;2023-02-26T16:45:00;0.65;;;0.45;;
44722;SDS011;30451;48.638;10.624;2023-02-26T16:47:43;0.63;;;0.50;;
44722;SDS011;30451;48.638;10.624;2023-02-26T16:50:29;0.70;;;0.57;;
44722;SDS011;30451;48.638;10.624;2023-02-26T16:53:00;0.95;;;0.70;;
44722;SDS011;30451;48.638;10.624;2023-02-26T16:55:32;0.57;;;0.50;;
44722;SDS011;30451;48.638;10.624;2023-02-26T16:58:00;1.00;;;0.60;;
44722;SDS011;30451;48.638;10.624;2023-02-26T17:03:15;1.92;;;0.70;;
44722;SDS011;30451;48.638;10.624;2023-02-26T17:05:53;0.90;;;0.60;;
44722;SDS011;30451;48.638;10.624;2023-02-26T17:08:31;1.05;;;0.65;;
44722;SDS011;30451;48.638;10.624;2023-02-26T17:11:00;1.23;;;0.80;;
44722;SDS011;30451;48.638;10.624;2023-02-26T17:13:30;0.77;;;0.60;;
44722;SDS011;30451;48.638;10.624;2023-02-26T17:15:58;1.40;;;0.70;;
44722;SDS011;30451;48.638;10.624;2023-02-26T17:18:29;1.13;;;0.57;;
44722;SDS011;30451;48.638;10.624;2023-02-26T17:20:54;1.67;;;0.80;;
44722;SDS011;30451;48.638;10.624;2023-02-26T17:23:22;1.27;;;0.70;;
44722;SDS011;30451;48.638;10.624;2023-02-26T17:25:53;1.50;;;0.70;;
44722;SDS011;30451;48.638;10.624;2023-02-26T17:28:24;1.20;;;0.60;;
44722;SDS011;30451;48.638;10.624;2023-02-26T17:30:52;1.45;;;0.70;;
44722;SDS011;30451;48.638;10.624;2023-02-26T17:33:19;1.60;;;0.93;;
44722;SDS011;30451;48.638;10.624;2023-02-26T17:35:45;0.82;;;0.60;;
44722;SDS011;30451;48.638;10.624;2023-02-26T17:38:12;1.17;;;0.60;;
44722;SDS011;30451;48.638;10.624;2023-02-26T17:40:39;1.02;;;0.52;;
44722;SDS011;30451;48.638;10.624;2023-02-26T17:43:07;2.15;;;0.73;;
44722;SDS011;30451;48.638;10.624;2023-02-26T17:45:34;1.27;;;0.60;;
44722;SDS011;30451;48.638;10.624;2023-02-26T17:48:01;1.33;;;0.85;;
44722;SDS011;30451;48.638;10.624;2023-02-26T17:53:11;1.50;;;0.60;;